Time;durP1;ratioP1;P1;durP2;ratioP2;P2;SDS_P1;SDS_P2;PMS_P1;PMS_P2;Temp;Humidity;BMP_temperature;BMP_pressure;BME280_temperature;BME280_humidity;BME280_pressure;Samples;Min_cycle;Max_cycle;Signal;HPM_P1;HPM_P2
2023/07/03 00:00:11;;;;;;;20.27;11.20;;;;;;;23.54;51.21;99999.03;5075726;28;20480;-63
2023/07/03 00:02:36;;;;;;;17.70;11.60;;;;;;;23.55;50.90;99994.94;5069058;28;20314;-63
2023/07/03 00:05:03;;;;;;;18.77;11.30;;;;;;;23.56;51.50;99999.47;5081434;28;20468;-63
2023/07/03 00:07:28;;;;;;;17.10;10.20;;;;;;;23.56;50.87;100004.38;5089556;28;20444;-63
2023/07/03 00:09:54;;;;;;;18.27;11.37;;;;;;;23.54;51.30;99999.03;5089435;28;20498;-63
2023/07/03 00:12:19;;;;;;;19.37;11.80;;;;;;;23.54;51.39;100007.69;5087310;28;20534;-63
2023/07/03 00:14:45;;;;;;;21.67;11.97;;;;;;;23.53;51.04;100003.16;5088841;28;20609;-63
2023/07/03 00:17:10;;;;;;;20.83;11.93;;;;;;;23.54;51.39;100007.69;5087956;28;20198;-64
2023/07/03 00:19:36;;;;;;;17.43;10.97;;;;;;;23.53;51.71;99994.53;5068145;28;20189;-63
2023/07/03 00:22:01;;;;;;;19.20;10.83;;;;;;;23.54;51.68;99998.25;5066896;28;20550;-63
2023/07/03 00:24:28;;;;;;;18.10;11.50;;;;;;;23.54;51.54;99998.25;5088368;28;20592;-63
2023/07/03 00:26:55;;;;;;;20.47;11.27;;;;;;;23.53;51.33;100003.16;5057657;28;20182;-63
2023/07/03 00:29:20;;;;;;;20.97;10.87;;;;;;;23.53;51.30;100005.25;5068402;28;20615;-63
2023/07/03 00:31:45;;;;;;;14.67;9.80;;;;;;;23.53;51.34;100005.25;5070889;28;20937;-63
2023/07/03 00:34:11;;;;;;;20.13;11.30;;;;;;;23.52;51.47;100010.19;5088260;28;20179;-63
2023/07/03 00:36:36;;;;;;;17.77;11.30;;;;;;;23.52;51.80;100004.41;5085564;28;20178;-63
2023/07/03 00:39:02;;;;;;;22.77;12.20;;;;;;;23.53;51.79;100002.38;5087229;28;20225;-63
2023/07/03 00:41:27;;;;;;;17.37;11.37;;;;;;;23.51;51.69;100002.78;5080156;28;20537;-63
2023/07/03 00:43:53;;;;;;;20.33;10.93;;;;;;;23.51;51.86;99999.91;5075856;28;20658;-63
2023/07/03 00:46:18;;;;;;;21.47;11.00;;;;;;;23.51;51.75;99988.38;5067917;28;20171;-63
2023/07/03 00:48:44;;;;;;;17.20;10.77;;;;;;;23.51;51.69;99987.53;5052227;28;20186;-63
2023/07/03 00:51:10;;;;;;;19.80;10.67;;;;;;;23.51;51.61;99997.03;5052402;28;20194;-63
2023/07/03 00:53:35;;;;;;;17.50;11.13;;;;;;;23.51;51.70;99997.03;5033398;28;20557;-63
2023/07/03 00:56:02;;;;;;;19.47;11.33;;;;;;;23.50;51.83;99995.38;5071015;28;20183;-63
2023/07/03 00:58:28;;;;;;;19.87;10.27;;;;;;;23.51;51.73;99993.31;5068267;28;20631;-63
2023/07/03 01:04:19;;;;;;;18.80;10.50;;;;;;;23.50;51.95;99995.38;4619385;28;20295;-63
2023/07/03 01:06:57;;;;;;;18.60;11.03;;;;;;;23.49;51.79;99990.84;5054153;28;20713;-63
2023/07/03 01:09:24;;;;;;;19.20;10.60;;;;;;;23.50;51.68;100000.31;5075985;28;20400;-63
2023/07/03 01:11:50;;;;;;;18.90;11.27;;;;;;;23.49;52.02;99990.03;5056780;28;20983;-63
2023/07/03 01:14:17;;;;;;;19.77;11.27;;;;;;;23.50;51.90;99998.28;5078947;28;20436;-63
2023/07/03 01:16:43;;;;;;;19.50;11.00;;;;;;;23.50;51.95;99991.69;5056537;28;20175;-63
2023/07/03 01:19:12;;;;;;;18.90;10.10;;;;;;;23.49;51.64;99990.84;5066998;28;20451;-63
2023/07/03 01:21:44;;;;;;;17.90;11.10;;;;;;;23.49;51.84;99996.59;5037717;28;20769;-63
2023/07/03 01:24:34;;;;;;;18.17;10.90;;;;;;;23.49;51.66;99996.59;5054493;28;20421;-63
2023/07/03 01:27:00;;;;;;;16.33;9.90;;;;;;;23.49;51.95;99990.03;5070256;28;20441;-63
2023/07/03 01:29:26;;;;;;;18.03;11.20;;;;;;;23.49;51.48;99995.81;5071810;28;20966;-63
2023/07/03 01:31:51;;;;;;;16.23;10.63;;;;;;;23.49;51.71;99999.50;5081761;28;20444;-63
2023/07/03 01:34:17;;;;;;;19.77;11.07;;;;;;;23.48;51.82;99992.09;5073095;28;20238;-63
2023/07/03 01:36:42;;;;;;;20.60;11.20;;;;;;;23.48;51.67;99994.19;5088636;28;20224;-63
2023/07/03 01:39:07;;;;;;;18.00;10.00;;;;;;;23.48;52.01;99991.28;5052755;28;20159;-63
2023/07/03 01:41:33;;;;;;;19.53;10.63;;;;;;;23.47;52.06;99990.47;5061488;28;21094;-63
2023/07/03 01:43:58;;;;;;;18.50;10.70;;;;;;;23.48;51.80;99994.19;5073505;28;20183;-63
2023/07/03 01:46:24;;;;;;;17.97;10.20;;;;;;;23.48;52.11;99988.41;5081630;28;20178;-63
2023/07/03 01:48:49;;;;;;;17.50;10.30;;;;;;;23.47;52.37;99992.50;5054818;28;20221;-62
2023/07/03 01:51:27;;;;;;;18.97;11.30;;;;;;;23.47;52.08;99987.56;5091678;28;20174;-63
2023/07/03 01:54:09;;;;;;;17.60;10.73;;;;;;;23.47;52.06;99987.56;5074244;28;20178;-63
2023/07/03 01:56:37;;;;;;;18.17;11.00;;;;;;;23.46;52.29;99988.81;5058445;28;20473;-63
2023/07/03 01:59:07;;;;;;;18.23;10.97;;;;;;;23.46;52.36;99985.09;5067573;28;20468;-63
2023/07/03 02:02:04;;;;;;;16.23;10.00;;;;;;;23.45;52.12;99983.47;5073820;28;20460;-63
2023/07/03 02:04:41;;;;;;;18.13;10.30;;;;;;;23.45;52.03;99990.06;5070128;28;20472;-63
2023/07/03 02:07:06;;;;;;;22.33;10.90;;;;;;;23.45;52.17;99984.31;5068873;28;20491;-63
2023/07/03 02:09:32;;;;;;;20.53;11.07;;;;;;;23.45;52.05;99990.06;5067249;28;20441;-63
2023/07/03 02:11:57;;;;;;;16.80;10.23;;;;;;;23.46;51.98;99990.88;5058017;28;20198;-63
2023/07/03 02:14:24;;;;;;;20.17;11.53;;;;;;;23.44;52.03;99994.16;5088830;28;20622;-63
2023/07/03 02:16:50;;;;;;;20.00;10.43;;;;;;;23.45;51.96;99995.84;5084935;28;20182;-62
2023/07/03 02:19:16;;;;;;;14.57;10.03;;;;;;;23.44;51.98;99987.59;5071578;28;20417;-63
2023/07/03 02:21:45;;;;;;;20.00;11.60;;;;;;;23.43;52.08;99989.66;5088215;28;20498;-63
2023/07/03 02:24:11;;;;;;;18.67;11.30;;;;;;;23.45;51.85;99986.34;5071119;28;20250;-63
2023/07/03 02:26:37;;;;;;;16.80;10.80;;;;;;;23.44;51.86;99987.59;5070640;28;20413;-63
2023/07/03 02:29:02;;;;;;;15.87;9.97;;;;;;;23.43;51.84;99988.84;5072523;28;20429;-63
2023/07/03 02:31:28;;;;;;;17.77;11.37;;;;;;;23.43;51.94;99986.78;5070016;28;20547;-63
2023/07/03 02:33:54;;;;;;;20.00;10.60;;;;;;;23.45;51.74;99995.84;5072388;28;20212;-62
2023/07/03 02:36:19;;;;;;;19.23;10.73;;;;;;;23.44;52.03;99988.41;5069583;28;20174;-63
2023/07/03 02:38:44;;;;;;;18.53;10.90;;;;;;;23.42;52.12;99985.16;5082246;28;20190;-63
2023/07/03 02:41:10;;;;;;;19.97;10.53;;;;;;;23.42;52.11;99976.50;5089757;28;20662;-63
2023/07/03 02:43:36;;;;;;;15.07;9.83;;;;;;;23.42;51.84;99976.50;5081970;28;20179;-63
2023/07/03 02:46:05;;;;;;;17.00;10.47;;;;;;;23.42;51.94;99985.16;5070724;28;20163;-63
2023/07/03 02:48:30;;;;;;;15.50;9.50;;;;;;;23.42;51.95;99988.03;5085307;28;20602;-63
2023/07/03 02:50:56;;;;;;;22.47;11.63;;;;;;;23.42;52.22;99985.16;5071874;28;20520;-63
2023/07/03 02:53:22;;;;;;;19.60;11.37;;;;;;;23.41;52.09;99983.50;5070421;28;20508;-63
2023/07/03 02:55:50;;;;;;;20.80;11.80;;;;;;;23.42;52.33;99985.16;5066919;28;20227;-63
2023/07/03 02:58:17;;;;;;;21.27;11.50;;;;;;;23.42;52.34;99984.31;5085668;28;20207;-63
2023/07/03 03:00:42;;;;;;;14.90;10.00;;;;;;;23.42;51.98;99981.44;5064125;28;21012;-63
2023/07/03 03:03:08;;;;;;;16.83;10.50;;;;;;;23.41;52.27;99977.75;5069600;28;20461;-63
2023/07/03 03:05:33;;;;;;;17.43;10.13;;;;;;;23.42;52.11;99978.53;5071820;28;20182;-63
2023/07/03 03:07:58;;;;;;;17.33;9.40;;;;;;;23.41;51.99;99971.97;5050899;28;20188;-63
2023/07/03 03:10:24;;;;;;;17.93;10.70;;;;;;;23.39;51.99;99974.44;5074401;28;20183;-63
2023/07/03 03:12:50;;;;;;;19.07;10.80;;;;;;;23.40;52.06;99970.34;5070879;28;20174;-63
2023/07/03 03:15:17;;;;;;;17.10;10.30;;;;;;;23.40;52.10;99967.47;5087995;28;20228;-63
2023/07/03 03:17:43;;;;;;;18.43;10.17;;;;;;;23.41;52.06;99968.28;5071522;28;20230;-62
2023/07/03 03:20:10;;;;;;;17.50;10.60;;;;;;;23.40;51.91;99973.22;5069714;28;20825;-62
2023/07/03 03:22:35;;;;;;;15.77;9.83;;;;;;;23.41;52.31;99965.38;5072942;28;20486;-63
2023/07/03 03:25:01;;;;;;;20.07;10.70;;;;;;;23.41;52.08;99976.91;5071672;28;20421;-63
2023/07/03 03:27:26;;;;;;;19.20;10.60;;;;;;;23.41;52.00;99977.75;5067831;28;20171;-63
2023/07/03 03:29:52;;;;;;;17.10;10.13;;;;;;;23.41;52.09;99974.03;5070758;28;20184;-63
2023/07/03 03:32:17;;;;;;;22.70;10.60;;;;;;;23.41;51.86;99977.75;5067569;28;20160;-63
2023/07/03 03:34:43;;;;;;;20.70;10.87;;;;;;;23.41;52.36;99982.69;5069248;28;20240;-63
2023/07/03 03:37:08;;;;;;;18.70;10.73;;;;;;;23.40;52.36;99976.13;5087433;28;20190;-63
2023/07/03 03:39:33;;;;;;;18.80;10.40;;;;;;;23.40;51.74;99976.13;5088797;28;20228;-63
2023/07/03 03:41:59;;;;;;;15.10;9.30;;;;;;;23.39;52.26;99973.66;5089030;28;20178;-63
2023/07/03 03:44:24;;;;;;;18.30;11.10;;;;;;;23.40;52.17;99975.28;5082973;28;20183;-63
2023/07/03 03:46:52;;;;;;;16.57;10.27;;;;;;;23.40;51.98;99973.22;5067431;28;20627;-63
2023/07/03 03:49:18;;;;;;;19.47;11.57;;;;;;;23.40;51.78;99972.41;5066613;28;20162;-63
2023/07/03 03:51:43;;;;;;;19.27;11.50;;;;;;;23.39;51.97;99973.66;5085532;28;20420;-63
2023/07/03 03:54:09;;;;;;;18.83;10.47;;;;;;;23.39;52.15;99980.22;5081671;28;20178;-62
2023/07/03 03:56:35;;;;;;;18.83;9.53;;;;;;;23.39;52.07;99983.09;5084993;28;20210;-64
2023/07/03 03:59:01;;;;;;;20.00;10.60;;;;;;;23.37;52.12;99984.75;5088192;28;20451;-63
2023/07/03 04:01:26;;;;;;;21.53;11.27;;;;;;;23.37;51.88;99985.59;5075768;28;20182;-63
2023/07/03 04:03:51;;;;;;;18.93;10.00;;;;;;;23.37;52.15;99988.47;5070744;28;20476;-63
2023/07/03 04:06:17;;;;;;;20.67;10.77;;;;;;;23.36;52.17;99986.84;5073476;28;20564;-63
2023/07/03 04:08:43;;;;;;;19.50;10.47;;;;;;;23.35;51.96;99993.00;5086059;28;20193;-63
2023/07/03 04:11:09;;;;;;;17.93;9.77;;;;;;;23.35;52.13;99996.72;5081647;28;20187;-63
2023/07/03 04:13:34;;;;;;;17.73;10.80;;;;;;;23.36;52.35;100006.16;5084764;28;20469;-63
2023/07/03 04:16:00;;;;;;;17.40;10.67;;;;;;;23.35;52.39;100011.13;5076038;28;20896;-63
2023/07/03 04:18:26;;;;;;;17.00;10.03;;;;;;;23.36;52.30;100015.66;5082817;28;20714;-63
2023/07/03 04:20:52;;;;;;;19.40;10.00;;;;;;;23.35;51.99;100008.25;5067585;28;20939;-63
2023/07/03 04:23:18;;;;;;;17.87;10.10;;;;;;;23.35;52.03;100007.41;5067593;28;20256;-63
2023/07/03 04:25:43;;;;;;;17.87;11.03;;;;;;;23.35;52.43;100013.19;5075572;28;20193;-62
2023/07/03 04:28:09;;;;;;;19.80;9.60;;;;;;;23.35;52.09;100019.78;5080911;28;20429;-62
2023/07/03 04:30:35;;;;;;;17.50;9.70;;;;;;;23.35;52.05;100018.94;5074028;28;20193;-63
2023/07/03 04:33:00;;;;;;;24.20;10.77;;;;;;;23.34;52.02;100018.09;5087642;28;20409;-63
2023/07/03 04:35:25;;;;;;;17.07;9.30;;;;;;;23.33;51.98;100022.25;5079762;28;20212;-63
2023/07/03 04:37:51;;;;;;;19.20;9.90;;;;;;;23.34;52.31;100020.19;5068164;28;20205;-63
2023/07/03 04:40:17;;;;;;;20.90;10.10;;;;;;;23.34;52.21;100028.84;5082875;28;20189;-63
2023/07/03 04:42:43;;;;;;;17.13;9.77;;;;;;;23.33;52.24;100022.25;5091805;28;20171;-63
2023/07/03 04:45:09;;;;;;;15.80;9.23;;;;;;;23.33;51.83;100027.19;5061084;28;20498;-63
2023/07/03 04:47:40;;;;;;;17.43;9.63;;;;;;;23.33;52.35;100027.19;5070704;28;20336;-63
2023/07/03 04:50:08;;;;;;;17.17;9.33;;;;;;;23.33;52.03;100032.97;5057749;28;20182;-63
2023/07/03 04:52:36;;;;;;;17.10;9.27;;;;;;;23.33;51.86;100033.75;5073463;28;20489;-63
2023/07/03 04:55:02;;;;;;;16.53;9.70;;;;;;;23.33;52.30;100036.63;5086391;28;20420;-63
2023/07/03 04:57:28;;;;;;;15.17;9.27;;;;;;;23.32;52.01;100032.13;5090535;28;20535;-63
2023/07/03 04:59:54;;;;;;;16.90;9.70;;;;;;;23.33;52.16;100033.75;5086927;28;20907;-63
2023/07/03 05:02:21;;;;;;;19.80;11.23;;;;;;;23.32;51.84;100037.88;5087635;28;20687;-63
2023/07/03 05:04:46;;;;;;;19.53;10.47;;;;;;;23.32;52.10;100037.88;5091312;28;20487;-63
2023/07/03 05:07:12;;;;;;;18.50;9.40;;;;;;;23.32;52.33;100040.78;5084723;28;20459;-63
2023/07/03 05:09:37;;;;;;;16.40;10.70;;;;;;;23.32;52.12;100039.94;5070919;28;20167;-63
2023/07/03 05:12:03;;;;;;;17.07;8.67;;;;;;;23.32;52.05;100049.41;5084317;28;20238;-63
2023/07/03 05:14:28;;;;;;;26.30;10.77;;;;;;;23.32;52.10;100060.94;5087814;28;20177;-63
2023/07/03 05:16:54;;;;;;;18.33;8.90;;;;;;;23.31;52.16;100065.06;5091155;28;20177;-63
2023/07/03 05:19:19;;;;;;;14.83;9.37;;;;;;;23.32;52.23;100066.69;5083672;28;20179;-63
2023/07/03 05:21:45;;;;;;;19.43;9.50;;;;;;;23.31;51.80;100065.06;5075564;28;20179;-63
2023/07/03 05:24:10;;;;;;;17.10;9.20;;;;;;;23.31;52.24;100070.00;5073817;28;20548;-63
2023/07/03 05:26:36;;;;;;;20.37;10.13;;;;;;;23.32;52.24;100062.97;5072984;28;20175;-63
2023/07/03 05:29:01;;;;;;;18.43;10.33;;;;;;;23.31;52.17;100070.81;5070593;28;20541;-63
2023/07/03 05:31:26;;;;;;;19.17;9.53;;;;;;;23.30;52.09;100069.19;5073790;28;20186;-63
2023/07/03 05:33:52;;;;;;;17.27;9.57;;;;;;;23.31;52.27;100070.81;5071876;28;20159;-63
2023/07/03 05:36:17;;;;;;;21.17;9.90;;;;;;;23.31;52.10;100070.81;5071632;28;20175;-63
2023/07/03 05:38:43;;;;;;;15.10;8.23;;;;;;;23.31;52.17;100067.94;5072152;28;20203;-63
2023/07/03 05:41:09;;;;;;;19.60;10.40;;;;;;;23.30;52.17;100074.94;5073703;28;20188;-63
2023/07/03 05:43:35;;;;;;;18.60;9.70;;;;;;;23.31;52.39;100081.50;5036890;28;21078;-63
2023/07/03 05:46:00;;;;;;;16.23;9.00;;;;;;;23.31;52.48;100081.50;5088729;28;20251;-63
2023/07/03 05:48:26;;;;;;;18.23;9.30;;;;;;;23.31;52.25;100084.41;5088830;28;20630;-63
2023/07/03 05:50:51;;;;;;;19.80;9.60;;;;;;;23.31;51.88;100084.41;5068120;28;20174;-63
2023/07/03 05:53:16;;;;;;;14.63;9.23;;;;;;;23.30;52.38;100083.59;5085950;28;20259;-63
2023/07/03 05:55:43;;;;;;;18.07;9.53;;;;;;;23.30;51.93;100082.75;5070907;28;20174;-63
2023/07/03 05:58:08;;;;;;;17.53;9.73;;;;;;;23.31;51.98;100098.81;5052100;28;20206;-63
2023/07/03 06:00:34;;;;;;;17.43;9.27;;;;;;;23.30;52.51;100105.81;5073414;28;20471;-63
2023/07/03 06:03:02;;;;;;;20.27;10.40;;;;;;;23.30;51.86;100106.63;5091041;28;20222;-63
2023/07/03 06:05:27;;;;;;;18.80;9.30;;;;;;;23.30;52.55;100115.28;5074249;28;20240;-63
2023/07/03 06:07:52;;;;;;;17.90;9.00;;;;;;;23.29;51.96;100119.38;5045838;28;20826;-63
2023/07/03 06:10:18;;;;;;;17.50;8.90;;;;;;;23.29;52.39;100116.50;5087644;28;20178;-63
2023/07/03 06:12:43;;;;;;;19.60;8.70;;;;;;;23.29;52.55;100133.78;5077417;28;20182;-63
2023/07/03 06:15:09;;;;;;;22.90;10.83;;;;;;;23.28;52.36;100132.16;5065756;28;20572;-63
2023/07/03 06:17:36;;;;;;;18.37;9.13;;;;;;;23.28;52.40;100140.78;5076259;28;20314;-63
2023/07/03 06:20:03;;;;;;;16.83;9.10;;;;;;;23.27;52.19;100149.84;5078939;28;20198;-62
2023/07/03 06:22:28;;;;;;;14.13;8.13;;;;;;;23.26;52.10;100148.22;5079035;28;20443;-63
2023/07/03 06:24:54;;;;;;;18.87;9.10;;;;;;;23.25;51.72;100147.41;5078912;28;20441;-63
2023/07/03 06:27:19;;;;;;;24.13;9.30;;;;;;;23.24;51.60;100144.94;5070374;28;20190;-63
2023/07/03 06:29:45;;;;;;;19.97;9.73;;;;;;;23.23;51.89;100141.22;5059375;28;20182;-63
2023/07/03 06:32:10;;;;;;;18.27;9.10;;;;;;;23.22;51.49;100148.22;5070921;28;20183;-63
2023/07/03 06:34:36;;;;;;;16.40;8.90;;;;;;;23.22;51.59;100151.09;5070554;28;20269;-63
2023/07/03 06:37:05;;;;;;;16.83;7.87;;;;;;;23.22;51.70;100145.34;5056205;28;20182;-63
2023/07/03 06:39:31;;;;;;;21.90;9.90;;;;;;;23.21;51.08;100146.59;5075604;28;20205;-63
2023/07/03 06:41:56;;;;;;;17.93;9.07;;;;;;;23.21;51.17;100160.16;5071167;28;20889;-62
2023/07/03 06:44:22;;;;;;;17.50;7.70;;;;;;;23.22;51.13;100154.00;5081581;28;20484;-63
2023/07/03 06:46:48;;;;;;;17.57;8.07;;;;;;;23.22;51.19;100156.03;5072452;28;20206;-63
2023/07/03 06:49:14;;;;;;;14.90;7.20;;;;;;;23.21;50.55;100152.34;5069380;28;20186;-63
2023/07/03 06:51:40;;;;;;;18.30;8.40;;;;;;;23.21;51.25;100157.28;5068988;28;20433;-62
2023/07/03 06:54:05;;;;;;;17.63;7.90;;;;;;;23.20;50.81;100164.28;5070735;28;20299;-63
2023/07/03 06:56:31;;;;;;;18.80;7.73;;;;;;;23.20;50.95;100168.00;5069294;28;21077;-63
2023/07/03 06:58:56;;;;;;;17.53;7.47;;;;;;;23.18;50.47;100161.81;5073904;28;20578;-63
2023/07/03 07:01:23;;;;;;;16.23;7.80;;;;;;;23.18;50.99;100164.69;5069213;28;20186;-62
2023/07/03 07:03:48;;;;;;;18.10;7.37;;;;;;;23.19;50.94;100166.31;5064605;28;20348;-62
2023/07/03 07:06:35;;;;;;;16.50;7.53;;;;;;;23.19;50.87;100171.28;5070367;28;20457;-63
2023/07/03 07:09:00;;;;;;;21.77;8.60;;;;;;;23.19;50.27;100166.31;5072924;28;20247;-63
2023/07/03 07:11:31;;;;;;;18.00;7.87;;;;;;;23.19;50.72;100165.53;5081187;28;20431;-63
2023/07/03 07:13:57;;;;;;;13.53;6.70;;;;;;;23.19;50.65;100166.31;5079291;28;20185;-63
2023/07/03 07:16:24;;;;;;;15.47;7.13;;;;;;;23.19;50.60;100163.44;5083209;28;20790;-63
2023/07/03 07:18:56;;;;;;;15.73;6.00;;;;;;;23.19;50.94;100156.88;5071437;28;20453;-63
2023/07/03 07:21:22;;;;;;;13.17;6.57;;;;;;;23.20;50.78;100159.34;5084855;28;20513;-63
2023/07/03 07:23:52;;;;;;;19.97;7.60;;;;;;;23.20;50.27;100162.25;5067881;28;20453;-63
2023/07/03 07:26:18;;;;;;;15.03;7.10;;;;;;;23.20;50.98;100165.13;5051826;28;20487;-63
2023/07/03 07:28:43;;;;;;;18.83;6.83;;;;;;;23.20;50.81;100164.28;5072138;28;20902;-63
2023/07/03 07:31:09;;;;;;;17.93;7.03;;;;;;;23.19;50.63;100157.69;5069498;28;20182;-62
2023/07/03 07:33:34;;;;;;;16.63;6.90;;;;;;;23.19;50.24;100162.66;5070896;28;20191;-63
2023/07/03 07:35:59;;;;;;;18.37;6.80;;;;;;;23.18;50.47;100161.81;5069535;28;20186;-62
2023/07/03 07:38:25;;;;;;;15.13;5.93;;;;;;;23.18;50.53;100164.69;5070477;28;20522;-63
2023/07/03 07:41:00;;;;;;;14.33;6.20;;;;;;;23.19;50.54;100154.00;5064769;28;20182;-62
2023/07/03 07:43:26;;;;;;;20.03;6.37;;;;;;;23.19;50.76;100154.81;5069094;28;20265;-63
2023/07/03 07:45:52;;;;;;;21.23;7.10;;;;;;;23.20;50.78;100155.63;5080122;28;20432;-62
2023/07/03 07:48:17;;;;;;;15.20;5.77;;;;;;;23.19;50.30;100160.56;5070124;28;20162;-63
2023/07/03 07:50:43;;;;;;;18.37;6.57;;;;;;;23.20;50.48;100152.75;5067424;28;21003;-63
2023/07/03 07:53:08;;;;;;;12.27;5.73;;;;;;;23.19;50.26;100156.88;5074238;28;20178;-63
2023/07/03 07:55:36;;;;;;;17.20;6.50;;;;;;;23.18;50.56;100158.94;5087079;28;20178;-63
2023/07/03 07:58:01;;;;;;;18.60;6.70;;;;;;;23.18;50.38;100147.41;5088371;28;20206;-63
2023/07/03 08:00:26;;;;;;;15.73;6.50;;;;;;;23.19;50.63;100154.00;5081254;28;20440;-62
2023/07/03 08:02:52;;;;;;;15.23;6.73;;;;;;;23.19;50.48;100160.56;5068779;28;20238;-63
2023/07/03 08:05:17;;;;;;;15.80;6.87;;;;;;;23.19;50.54;100149.03;5082140;28;20194;-62
2023/07/03 08:07:43;;;;;;;18.67;6.83;;;;;;;23.18;50.51;100156.03;5085443;28;20622;-63
2023/07/03 08:10:09;;;;;;;14.20;6.03;;;;;;;23.18;50.74;100152.38;5087162;28;20181;-63
2023/07/03 08:12:34;;;;;;;18.10;6.63;;;;;;;23.19;50.15;100148.25;5087276;28;20677;-63
2023/07/03 08:14:59;;;;;;;19.27;6.60;;;;;;;23.20;50.45;100149.88;5065436;28;20170;-62
2023/07/03 08:17:25;;;;;;;16.77;6.70;;;;;;;23.20;50.40;100147.84;5069835;28;20690;-63
2023/07/03 08:19:50;;;;;;;19.30;6.50;;;;;;;23.21;50.29;100157.28;5083320;28;20169;-62
2023/07/03 08:22:16;;;;;;;17.03;6.23;;;;;;;23.20;50.21;100150.72;5072043;28;20182;-63
2023/07/03 08:24:41;;;;;;;16.03;7.00;;;;;;;23.20;50.68;100153.59;5068619;28;20186;-63
2023/07/03 08:27:07;;;;;;;13.07;6.40;;;;;;;23.19;50.51;100149.03;5082111;28;20263;-63
2023/07/03 08:29:32;;;;;;;18.33;6.07;;;;;;;23.20;51.04;100161.41;5055716;28;20619;-62
2023/07/03 08:31:57;;;;;;;15.50;6.53;;;;;;;23.19;50.57;100148.25;5069054;28;20183;-62
2023/07/03 08:34:23;;;;;;;15.97;6.70;;;;;;;23.19;50.44;100137.53;5068617;28;20183;-63
2023/07/03 08:36:48;;;;;;;17.43;6.60;;;;;;;23.20;50.40;100133.44;5068699;28;20993;-62
2023/07/03 08:39:14;;;;;;;18.40;6.50;;;;;;;23.19;50.70;100140.41;5068798;28;20203;-62
2023/07/03 08:41:47;;;;;;;15.10;7.20;;;;;;;23.21;50.30;100140.00;5073112;28;20179;-63
2023/07/03 08:44:13;;;;;;;15.40;6.83;;;;;;;23.19;50.16;100143.28;5055279;28;20186;-62
2023/07/03 08:46:38;;;;;;;18.70;6.80;;;;;;;23.20;50.54;100142.06;5076689;28;20428;-62
2023/07/03 08:49:03;;;;;;;17.43;6.87;;;;;;;23.20;50.79;100147.84;5075173;28;20179;-62
2023/07/03 08:51:29;;;;;;;17.83;8.10;;;;;;;23.19;50.52;100154.81;5049556;28;20155;-63
2023/07/03 08:53:59;;;;;;;15.40;7.60;;;;;;;23.19;50.46;100148.25;5049046;28;20911;-63
2023/07/03 08:56:26;;;;;;;18.83;7.53;;;;;;;23.20;50.83;100142.06;5050239;28;20459;-63
2023/07/03 08:58:52;;;;;;;22.83;7.70;;;;;;;23.21;50.54;100152.34;5058173;28;20529;-63
2023/07/03 09:01:33;;;;;;;16.50;7.77;;;;;;;23.20;50.38;100147.84;5049372;28;20635;-63
2023/07/03 09:04:11;;;;;;;15.47;7.50;;;;;;;23.20;50.28;100153.59;5077203;28;20841;-63
2023/07/03 09:06:48;;;;;;;15.97;6.00;;;;;;;23.21;50.27;100158.13;5049052;28;20465;-62
2023/07/03 09:09:25;;;;;;;14.90;7.07;;;;;;;23.21;50.51;100151.50;5035364;28;20436;-63
2023/07/03 09:12:03;;;;;;;13.80;6.57;;;;;;;23.19;50.57;100166.31;5080786;28;20529;-63
2023/07/03 09:14:32;;;;;;;15.40;7.17;;;;;;;23.19;50.25;100166.31;5055037;28;20442;-63
2023/07/03 09:16:58;;;;;;;12.93;6.00;;;;;;;23.19;50.49;100166.31;5049573;28;21023;-63
2023/07/03 09:19:24;;;;;;;14.37;7.13;;;;;;;23.20;50.86;100167.16;5052150;28;20457;-62
2023/07/03 09:21:56;;;;;;;14.60;7.00;;;;;;;23.21;50.45;100168.81;5032951;28;20201;-62
2023/07/03 09:24:30;;;;;;;15.53;7.17;;;;;;;23.19;50.48;100169.22;5036698;28;20468;-62
2023/07/03 09:27:15;;;;;;;21.23;7.20;;;;;;;23.21;50.67;100174.56;5061265;28;20432;-63
2023/07/03 09:29:40;;;;;;;15.20;6.60;;;;;;;23.20;50.54;100175.81;5072156;28;20924;-63
2023/07/03 09:32:06;;;;;;;14.87;6.43;;;;;;;23.21;50.34;100183.19;5072250;28;20428;-62
2023/07/03 09:35:17;;;;;;;15.23;6.00;;;;;;;23.20;50.23;100191.03;5074877;28;20179;-62
2023/07/03 09:37:44;;;;;;;11.40;5.27;;;;;;;23.19;50.30;100197.22;5062289;28;20689;-62
2023/07/03 09:40:15;;;;;;;15.50;5.67;;;;;;;23.18;50.31;100199.25;5071282;28;20427;-62
2023/07/03 09:42:41;;;;;;;16.10;5.23;;;;;;;23.20;50.47;100190.22;5054654;28;20437;-63
2023/07/03 09:45:18;;;;;;;13.20;5.47;;;;;;;23.19;49.98;100188.56;5052318;28;20426;-63
2023/07/03 09:47:55;;;;;;;17.70;5.97;;;;;;;23.19;50.36;100186.50;5055155;28;20176;-63
2023/07/03 09:50:33;;;;;;;12.13;5.10;;;;;;;23.20;50.19;100202.56;5064857;28;20979;-62
2023/07/03 09:52:59;;;;;;;14.50;5.63;;;;;;;23.21;49.80;100194.72;5088524;28;20439;-62
2023/07/03 09:55:25;;;;;;;17.90;5.27;;;;;;;23.21;50.19;100203.38;5037543;28;20996;-62
2023/07/03 09:57:50;;;;;;;15.97;5.60;;;;;;;23.21;50.51;100198.44;5073650;28;20195;-63
2023/07/03 10:00:18;;;;;;;14.70;5.43;;;;;;;23.19;50.31;100203.78;5053851;28;21013;-63
2023/07/03 10:02:44;;;;;;;14.00;5.00;;;;;;;23.20;50.14;100202.56;5065578;28;20251;-62
2023/07/03 10:05:16;;;;;;;15.43;5.93;;;;;;;23.21;50.34;100217.78;5067996;28;20420;-63
2023/07/03 10:07:43;;;;;;;15.97;5.03;;;;;;;23.21;50.27;100214.88;5049691;28;20554;-62
2023/07/03 10:10:11;;;;;;;17.03;5.33;;;;;;;23.20;50.21;100213.25;5084142;28;20434;-62
2023/07/03 10:12:42;;;;;;;11.83;4.80;;;;;;;23.20;50.02;100213.25;5062355;28;20523;-63
2023/07/03 10:15:13;;;;;;;13.43;4.67;;;;;;;23.21;50.02;100221.47;5080167;28;20478;-63
2023/07/03 10:18:03;;;;;;;15.80;5.10;;;;;;;23.21;50.24;100221.47;5081036;28;20459;-63
2023/07/03 10:20:47;;;;;;;13.47;4.40;;;;;;;23.21;50.23;100214.88;5062494;28;20452;-62
2023/07/03 10:23:17;;;;;;;16.33;5.00;;;;;;;23.20;50.21;100221.88;5052547;28;20508;-62
2023/07/03 10:25:47;;;;;;;10.63;4.40;;;;;;;23.20;50.03;100221.88;5067003;28;20449;-62
2023/07/03 10:28:17;;;;;;;19.03;5.27;;;;;;;23.19;50.19;100214.50;5068287;28;20420;-62
2023/07/03 10:30:43;;;;;;;15.07;5.03;;;;;;;23.19;50.27;100206.66;5035803;28;20398;-63
2023/07/03 10:33:12;;;;;;;14.80;5.27;;;;;;;23.20;50.07;100208.31;5069894;28;20432;-62
2023/07/03 10:35:38;;;;;;;13.03;4.13;;;;;;;23.21;50.06;100209.97;5063596;28;20648;-62
2023/07/03 10:38:12;;;;;;;9.77;3.90;;;;;;;23.21;50.38;100209.97;5077264;28;20832;-63
2023/07/03 10:40:59;;;;;;;14.83;4.77;;;;;;;23.22;50.44;100205.00;5078498;28;20918;-62
2023/07/03 10:43:26;;;;;;;11.10;4.23;;;;;;;23.23;49.95;100209.56;5088470;28;20401;-63
2023/07/03 10:45:52;;;;;;;12.37;4.53;;;;;;;23.24;50.12;100212.00;5047781;28;20817;-63
2023/07/03 10:48:26;;;;;;;10.27;3.93;;;;;;;23.25;49.95;100209.94;5050158;28;20417;-62
2023/07/03 10:51:03;;;;;;;13.93;4.37;;;;;;;23.23;50.66;100207.47;5062739;28;20177;-63
2023/07/03 10:53:49;;;;;;;13.70;5.07;;;;;;;23.23;50.47;100204.59;5069616;28;20428;-62
2023/07/03 10:56:19;;;;;;;13.07;4.50;;;;;;;23.21;50.45;100207.06;5037673;28;20453;-62
2023/07/03 10:59:06;;;;;;;12.23;4.50;;;;;;;23.24;50.22;100191.03;5033637;28;20461;-63
2023/07/03 11:02:05;;;;;;;14.40;4.97;;;;;;;23.24;50.45;100188.16;5054839;28;20444;-63
2023/07/03 11:04:33;;;;;;;8.77;3.77;;;;;;;23.23;49.98;100183.63;5084952;28;20466;-63
2023/07/03 11:07:12;;;;;;;9.13;3.90;;;;;;;23.22;50.12;100177.03;5075719;28;20517;-62
2023/07/03 11:10:04;;;;;;;11.87;4.33;;;;;;;23.23;50.60;100175.78;5069804;28;20461;-62
2023/07/03 11:12:39;;;;;;;9.27;3.83;;;;;;;23.23;50.30;100180.75;5067717;28;20444;-62
2023/07/03 11:15:27;;;;;;;10.70;3.97;;;;;;;23.24;50.35;100165.91;5052515;28;20532;-62
2023/07/03 11:18:08;;;;;;;12.63;4.53;;;;;;;23.24;50.15;100151.50;5052502;28;21001;-62
2023/07/03 11:20:41;;;;;;;8.37;3.87;;;;;;;23.25;50.40;100156.03;5048464;28;20432;-62
2023/07/03 11:23:34;;;;;;;10.67;3.90;;;;;;;23.26;50.32;100154.81;5067174;28;20425;-63